createdAt,value
2019-02-26T00:15:26.202Z,15.49
2019-02-26T00:35:27.466Z,18.26
2019-02-26T00:55:35.667Z,12.40
2019-02-26T01:15:43.671Z,14.96
2019-02-26T01:35:55.392Z,13.10
2019-02-26T01:56:04.524Z,12.86
2019-02-26T02:16:11.426Z,11.89
2019-02-26T02:36:23.117Z,10.62
2019-02-26T02:56:30.922Z,12.68
2019-02-26T03:16:42.492Z,10.13
2019-02-26T03:36:45.407Z,11.53
2019-02-26T03:56:41.537Z,11.00
2019-02-26T04:16:51.007Z,11.02
2019-02-26T04:37:01.557Z,12.66
2019-02-26T04:57:09.586Z,7.56
2019-02-26T05:17:23.797Z,7.37
2019-02-26T05:37:20.442Z,8.57
2019-02-26T05:57:32.665Z,11.10
2019-02-26T06:17:41.129Z,8.98
2019-02-26T06:37:46.643Z,7.45
2019-02-26T06:57:56.119Z,6.77
2019-02-26T07:18:07.687Z,3.80
2019-02-26T07:38:16.194Z,3.20
2019-02-26T07:58:23.805Z,3.84
2019-02-26T08:18:35.616Z,2.77
2019-02-26T08:38:35.091Z,4.09
2019-02-26T08:58:45.412Z,3.36
2019-02-26T09:18:53.641Z,3.14
2019-02-26T09:39:03.260Z,2.78
2019-02-26T09:59:13.028Z,2.94
2019-02-26T10:19:21.243Z,1.75
2019-02-26T10:39:32.162Z,3.66
2019-02-26T10:59:42.240Z,2.54
2019-02-26T11:19:52.686Z,2.22
2019-02-26T11:39:51.800Z,1.46
2019-02-26T12:00:01.987Z,1.58
2019-02-26T12:20:00.447Z,1.99
2019-02-26T12:40:10.425Z,1.15
2019-02-26T13:00:19.968Z,1.29
2019-02-26T13:20:29.279Z,2.70
2019-02-26T13:40:28.946Z,3.17
2019-02-26T14:00:38.438Z,1.84
2019-02-26T14:20:50.356Z,1.49
2019-02-26T14:40:49.806Z,1.60
2019-02-26T15:01:00.430Z,1.71
2019-02-26T15:21:08.451Z,1.80
2019-02-26T15:41:20.243Z,2.01
2019-02-26T16:01:19.918Z,1.24
2019-02-26T16:21:29.469Z,1.57
2019-02-26T16:41:39.169Z,1.71
2019-02-26T17:01:48.771Z,2.41
2019-02-26T17:21:58.264Z,1.82
2019-02-26T17:42:07.835Z,1.97
2019-02-26T18:02:17.443Z,2.05
2019-02-26T18:22:30.310Z,8.34
2019-02-26T18:42:30.893Z,1.70
2019-02-26T19:02:28.982Z,2.51
2019-02-26T19:22:44.831Z,2.50
2019-02-26T19:42:44.360Z,2.00
2019-02-26T20:02:56.234Z,2.56
2019-02-26T20:22:55.738Z,2.06
2019-02-26T20:43:07.634Z,2.14
2019-02-26T21:03:08.045Z,2.69
2019-02-26T21:23:18.890Z,2.89
2019-02-26T21:43:22.285Z,4.87
2019-02-26T22:03:24.554Z,5.90
2019-02-26T22:23:34.291Z,3.26
2019-02-26T22:43:32.541Z,3.51
2019-02-26T23:03:46.059Z,3.70
2019-02-26T23:23:43.516Z,3.17
2019-02-26T23:43:53.519Z,3.42
